createdAt,value
2018-11-23T00:02:30.137Z,24.37
2018-11-23T00:04:59.830Z,21.70
2018-11-23T00:07:31.042Z,24.37
2018-11-23T00:10:01.166Z,26.27
2018-11-23T00:12:31.713Z,26.70
2018-11-23T00:15:02.014Z,27.47
2018-11-23T00:17:36.013Z,25.20
2018-11-23T00:20:07.497Z,27.10
2018-11-23T00:22:39.024Z,25.90
2018-11-23T00:25:12.263Z,26.67
2018-11-23T00:27:45.904Z,25.60
2018-11-23T00:30:17.315Z,25.97
2018-11-23T00:32:47.409Z,27.30
2018-11-23T00:35:20.506Z,27.97
2018-11-23T00:37:54.492Z,28.93
2018-11-23T00:40:28.308Z,27.40
2018-11-23T00:43:00.517Z,27.30
2018-11-23T00:45:31.024Z,28.83
2018-11-23T00:48:01.578Z,29.03
2018-11-23T00:50:33.014Z,27.87
2018-11-23T00:53:05.431Z,30.63
2018-11-23T00:55:35.046Z,30.07
2018-11-23T00:58:05.215Z,29.90
2018-11-23T01:00:38.566Z,30.80
2018-11-23T01:03:15.087Z,30.33
2018-11-23T01:05:45.254Z,31.60
2018-11-23T01:08:15.426Z,29.73
2018-11-23T01:10:46.171Z,31.80
2018-11-23T01:13:17.315Z,29.97
2018-11-23T01:15:49.264Z,31.23
2018-11-23T01:18:20.291Z,30.67
2018-11-23T01:20:50.487Z,34.03
2018-11-23T01:23:20.181Z,33.27
2018-11-23T01:25:51.263Z,32.67
2018-11-23T01:28:21.154Z,31.33
2018-11-23T01:30:51.396Z,33.90
2018-11-23T01:33:22.263Z,33.90
2018-11-23T01:35:52.411Z,33.73
2018-11-23T01:38:22.334Z,33.87
2018-11-23T01:40:53.766Z,34.07
2018-11-23T01:43:31.850Z,33.60
2018-11-23T01:46:02.363Z,34.27
2018-11-23T01:48:33.433Z,33.50
2018-11-23T01:51:03.446Z,32.80
2018-11-23T01:53:33.296Z,33.90
2018-11-23T01:56:04.373Z,33.20
2018-11-23T01:58:34.415Z,31.57
2018-11-23T02:01:04.370Z,31.60
2018-11-23T02:03:37.323Z,32.77
2018-11-23T02:06:07.062Z,32.43
2018-11-23T02:08:38.350Z,31.50
2018-11-23T02:11:10.354Z,31.23
2018-11-23T02:13:40.602Z,32.90
2018-11-23T02:16:10.658Z,31.20
2018-11-23T02:18:41.365Z,32.17
2018-11-23T02:21:13.659Z,31.00
2018-11-23T02:23:43.475Z,30.03
2018-11-23T02:26:13.602Z,30.50
2018-11-23T02:28:44.500Z,29.37
2018-11-23T02:31:16.848Z,30.57
2018-11-23T02:33:48.404Z,28.67
2018-11-23T02:36:26.049Z,30.67
2018-11-23T02:39:05.815Z,31.13
2018-11-23T02:41:37.879Z,31.53
2018-11-23T02:44:07.515Z,29.67
2018-11-23T02:46:38.536Z,30.47
2018-11-23T02:49:09.357Z,29.77
2018-11-23T02:51:39.510Z,29.40
2018-11-23T02:54:12.782Z,28.03
2018-11-23T02:56:45.914Z,27.90
2018-11-23T02:59:16.591Z,28.40
2018-11-23T03:01:47.810Z,28.87
2018-11-23T03:04:17.720Z,27.83
2018-11-23T03:06:48.730Z,28.90
2018-11-23T03:09:18.688Z,30.63
2018-11-23T03:11:48.785Z,29.40
2018-11-23T03:14:19.817Z,30.10
2018-11-23T03:16:52.703Z,29.77
2018-11-23T03:19:22.684Z,27.77
2018-11-23T03:21:54.779Z,28.50
2018-11-23T03:24:27.543Z,28.00
2018-11-23T03:26:59.748Z,30.47
2018-11-23T03:29:29.818Z,28.97
2018-11-23T03:32:00.591Z,28.73
2018-11-23T03:34:30.808Z,27.33
2018-11-23T03:37:01.278Z,29.37
2018-11-23T03:39:34.141Z,28.77
2018-11-23T03:42:01.738Z,27.10
2018-11-23T03:44:32.171Z,28.30
2018-11-23T03:47:01.815Z,27.80
2018-11-23T03:49:33.008Z,30.80
2018-11-23T03:52:03.024Z,27.33
2018-11-23T03:54:33.501Z,29.77
2018-11-23T03:57:03.856Z,28.70
2018-11-23T03:59:33.739Z,30.80
2018-11-23T04:02:04.014Z,31.00
2018-11-23T04:04:34.888Z,31.53
2018-11-23T04:07:05.047Z,31.60
2018-11-23T04:09:34.863Z,31.50
2018-11-23T04:12:06.174Z,32.93
2018-11-23T04:14:36.089Z,32.73
2018-11-23T04:17:06.658Z,30.63
2018-11-23T04:19:36.728Z,33.13
2018-11-23T04:22:07.102Z,32.27
2018-11-23T04:24:37.546Z,30.03
2018-11-23T04:27:07.340Z,31.87
2018-11-23T04:29:38.301Z,31.60
2018-11-23T04:32:07.953Z,32.73
2018-11-23T04:34:38.877Z,32.07
2018-11-23T04:37:11.868Z,31.50
2018-11-23T04:39:42.331Z,37.60
2018-11-23T04:42:12.955Z,32.60
2018-11-23T04:44:43.239Z,32.27
2018-11-23T04:47:13.198Z,32.83
2018-11-23T04:49:47.027Z,31.27
2018-11-23T04:52:17.457Z,33.00
2018-11-23T04:54:48.169Z,35.10
2018-11-23T04:57:18.358Z,34.80
2018-11-23T04:59:48.328Z,32.70
2018-11-23T05:02:19.034Z,32.60
2018-11-23T05:04:49.187Z,35.87
2018-11-23T05:07:19.325Z,35.10
2018-11-23T05:09:50.298Z,35.27
2018-11-23T05:12:21.542Z,36.17
2018-11-23T05:14:53.146Z,37.33
2018-11-23T05:17:24.327Z,35.77
2018-11-23T05:19:54.484Z,37.83
2018-11-23T05:22:25.404Z,35.17
2018-11-23T05:24:56.296Z,35.63
2018-11-23T05:27:26.357Z,34.10
2018-11-23T05:29:56.462Z,35.87
2018-11-23T05:32:28.387Z,35.23
2018-11-23T05:35:00.455Z,35.47
2018-11-23T05:37:31.471Z,35.10
2018-11-23T05:40:01.514Z,34.43
2018-11-23T05:42:33.317Z,34.30
2018-11-23T05:45:06.202Z,33.47
2018-11-23T05:47:38.323Z,36.10
2018-11-23T05:50:11.082Z,33.87
2018-11-23T05:52:41.596Z,33.17
2018-11-23T05:55:13.522Z,33.60
2018-11-23T05:57:45.336Z,33.27
2018-11-23T06:00:25.540Z,33.63
2018-11-23T06:02:55.455Z,35.03
2018-11-23T06:05:25.447Z,32.23
2018-11-23T06:07:55.654Z,32.10
2018-11-23T06:10:25.582Z,31.70
2018-11-23T06:12:56.755Z,31.60
2018-11-23T06:15:26.567Z,31.73
2018-11-23T06:17:56.494Z,31.83
2018-11-23T06:20:27.515Z,32.93
2018-11-23T06:22:57.622Z,33.30
2018-11-23T06:25:34.922Z,31.63
2018-11-23T06:28:04.599Z,34.30
2018-11-23T06:30:34.742Z,33.10
2018-11-23T06:33:17.604Z,34.03
2018-11-23T06:35:48.663Z,32.23
2018-11-23T06:38:20.719Z,34.37
2018-11-23T06:40:50.573Z,30.80
2018-11-23T06:43:22.743Z,34.03
2018-11-23T06:45:54.809Z,33.63
2018-11-23T06:48:24.597Z,36.07
2018-11-23T06:50:56.601Z,36.27
2018-11-23T06:53:28.768Z,35.30
2018-11-23T06:55:59.393Z,32.43
2018-11-23T06:58:29.461Z,35.93
2018-11-23T07:00:59.591Z,33.03
2018-11-23T07:03:32.759Z,35.27
2018-11-23T07:06:02.776Z,33.50
2018-11-23T07:08:33.738Z,33.83
2018-11-23T07:11:04.394Z,34.40
2018-11-23T07:13:34.992Z,34.10
2018-11-23T07:16:05.573Z,33.70
2018-11-23T07:18:38.107Z,33.13
2018-11-23T07:21:08.421Z,39.15
2018-11-23T07:23:38.844Z,36.13
2018-11-23T07:26:10.847Z,34.03
2018-11-23T07:28:42.942Z,34.60
2018-11-23T07:31:14.124Z,35.93
2018-11-23T07:33:45.753Z,31.33
2018-11-23T07:36:17.248Z,33.63
2018-11-23T07:38:50.022Z,32.70
2018-11-23T07:41:30.843Z,32.53
2018-11-23T07:44:02.766Z,34.80
2018-11-23T07:46:32.993Z,34.00
2018-11-23T07:49:02.823Z,34.40
2018-11-23T07:51:39.025Z,35.57
2018-11-23T07:54:05.023Z,35.50
2018-11-23T07:56:35.991Z,35.60
2018-11-23T07:59:10.749Z,36.17
2018-11-23T08:01:43.062Z,34.97
2018-11-23T08:04:15.173Z,35.80
2018-11-23T08:06:45.021Z,37.17
2018-11-23T08:09:20.280Z,34.30
2018-11-23T08:11:52.427Z,35.40
2018-11-23T08:14:23.367Z,34.40
2018-11-23T08:16:53.587Z,35.93
2018-11-23T08:19:24.105Z,32.43
2018-11-23T08:21:54.027Z,35.67
2018-11-23T08:24:25.050Z,37.23
2018-11-23T08:26:55.404Z,37.30
2018-11-23T08:29:25.107Z,35.07
2018-11-23T08:31:55.401Z,37.97
2018-11-23T08:34:26.088Z,37.70
2018-11-23T08:36:56.205Z,35.90
2018-11-23T08:39:26.085Z,38.30
2018-11-23T08:41:56.186Z,39.63
2018-11-23T08:44:27.289Z,39.60
2018-11-23T08:46:57.271Z,39.43
2018-11-23T08:49:30.418Z,36.00
2018-11-23T08:52:00.908Z,37.07
2018-11-23T08:54:31.444Z,36.70
2018-11-23T08:57:01.779Z,37.87
2018-11-23T08:59:32.123Z,39.10
2018-11-23T09:02:02.462Z,37.10
2018-11-23T09:04:33.062Z,38.13
2018-11-23T09:07:11.727Z,35.73
2018-11-23T09:09:42.382Z,38.83
2018-11-23T09:12:14.408Z,35.73
2018-11-23T09:14:46.567Z,36.90
2018-11-23T09:17:17.392Z,38.00
2018-11-23T09:19:49.523Z,36.50
2018-11-23T09:22:23.508Z,38.77
2018-11-23T09:24:50.442Z,36.67
2018-11-23T09:27:20.240Z,37.17
2018-11-23T09:29:51.220Z,37.80
2018-11-23T09:32:21.503Z,39.07
2018-11-23T09:34:51.955Z,37.20
2018-11-23T09:37:22.292Z,37.93
2018-11-23T09:39:52.821Z,39.37
2018-11-23T09:42:23.235Z,37.53
2018-11-23T09:44:53.743Z,36.87
2018-11-23T09:47:23.377Z,36.40
2018-11-23T09:49:54.303Z,36.97
2018-11-23T09:52:24.593Z,35.87
2018-11-23T09:54:54.695Z,36.20
2018-11-23T09:57:25.224Z,36.87
2018-11-23T09:59:55.434Z,36.87
2018-11-23T10:02:25.663Z,35.37
2018-11-23T10:04:56.385Z,35.70
2018-11-23T10:07:26.653Z,35.57
2018-11-23T10:09:56.687Z,35.87
2018-11-23T10:12:27.527Z,36.67
2018-11-23T10:14:57.671Z,36.00
2018-11-23T10:17:28.610Z,37.00
2018-11-23T10:19:58.690Z,35.03
2018-11-23T10:22:29.232Z,33.40
2018-11-23T10:24:59.704Z,36.30
2018-11-23T10:27:29.753Z,32.67
2018-11-23T10:30:01.301Z,34.30
2018-11-23T10:32:30.639Z,32.53
2018-11-23T10:35:01.667Z,34.33
2018-11-23T10:37:31.661Z,32.47
2018-11-23T10:40:02.842Z,33.00
2018-11-23T10:42:33.119Z,32.00
2018-11-23T10:45:03.629Z,33.23
2018-11-23T10:47:33.639Z,31.37
2018-11-23T10:50:03.770Z,32.90
2018-11-23T10:52:37.588Z,31.90
2018-11-23T10:55:10.295Z,33.10
2018-11-23T10:57:40.806Z,33.90
2018-11-23T11:01:17.576Z,31.57
2018-11-23T11:03:53.094Z,31.77
2018-11-23T11:06:28.781Z,32.80
2018-11-23T11:09:00.919Z,30.83
2018-11-23T11:11:31.828Z,33.93
2018-11-23T11:14:03.937Z,32.90
2018-11-23T11:16:35.546Z,31.93
2018-11-23T11:19:07.489Z,31.00
2018-11-23T11:21:38.381Z,29.67
2018-11-23T11:24:08.389Z,30.87
2018-11-23T11:26:44.727Z,30.33
2018-11-23T11:29:15.891Z,31.10
2018-11-23T11:31:45.943Z,30.17
2018-11-23T11:34:20.877Z,30.97
2018-11-23T11:36:54.967Z,30.17
2018-11-23T11:39:28.759Z,31.43
2018-11-23T11:42:00.045Z,29.50
2018-11-23T11:44:31.845Z,29.33
2018-11-23T11:47:01.478Z,30.03
2018-11-23T11:49:36.924Z,31.00
2018-11-23T11:52:07.402Z,29.77
2018-11-23T11:54:37.084Z,28.73
2018-11-23T11:57:07.136Z,28.53
2018-11-23T11:59:37.039Z,29.10
2018-11-23T12:02:10.277Z,28.87
2018-11-23T12:04:40.050Z,28.80
2018-11-23T12:07:11.162Z,28.97
2018-11-23T12:09:40.979Z,29.43
2018-11-23T12:12:11.085Z,28.20
2018-11-23T12:14:42.235Z,27.10
2018-11-23T12:17:15.237Z,27.23
2018-11-23T12:19:46.438Z,27.00
2018-11-23T12:22:16.750Z,26.63
2018-11-23T12:24:46.963Z,27.20
2018-11-23T12:27:17.134Z,26.70
2018-11-23T12:29:47.647Z,26.33
2018-11-23T12:32:18.209Z,26.10
2018-11-23T12:34:48.707Z,24.37
2018-11-23T12:37:18.817Z,25.00
2018-11-23T12:39:49.188Z,25.17
2018-11-23T12:42:19.765Z,26.37
2018-11-23T12:44:49.956Z,25.33
2018-11-23T12:47:20.343Z,26.20
2018-11-23T12:49:50.936Z,24.80
2018-11-23T12:52:21.273Z,25.43
2018-11-23T12:54:51.408Z,26.57
2018-11-23T12:57:22.244Z,28.40
2018-11-23T12:59:52.453Z,24.77
2018-11-23T13:02:22.921Z,23.20
2018-11-23T13:04:53.474Z,26.47
2018-11-23T13:07:23.992Z,25.60
2018-11-23T13:09:54.389Z,25.37
2018-11-23T13:12:24.414Z,26.13
2018-11-23T13:14:55.207Z,25.77
2018-11-23T13:17:25.580Z,25.70
2018-11-23T13:19:55.520Z,25.37
2018-11-23T13:22:26.218Z,25.17
2018-11-23T13:24:56.484Z,24.97
2018-11-23T13:27:26.480Z,26.07
2018-11-23T13:29:57.154Z,22.50
2018-11-23T13:32:27.466Z,25.27
2018-11-23T13:34:57.573Z,24.93
2018-11-23T13:37:28.153Z,24.07
2018-11-23T13:39:58.429Z,22.13
2018-11-23T13:42:28.950Z,23.90
2018-11-23T13:44:59.081Z,23.33
2018-11-23T13:47:29.518Z,22.53
2018-11-23T13:49:59.849Z,22.77
2018-11-23T13:52:30.115Z,23.37
2018-11-23T13:55:00.506Z,23.70
2018-11-23T13:57:30.895Z,23.70
2018-11-23T14:00:00.639Z,22.40
2018-11-23T14:02:31.340Z,20.60
2018-11-23T14:05:01.623Z,22.20
2018-11-23T14:07:31.850Z,21.43
2018-11-23T14:10:11.001Z,19.70
2018-11-23T14:12:41.857Z,19.23
2018-11-23T14:15:14.856Z,20.03
2018-11-23T14:17:46.542Z,19.20
2018-11-23T14:20:18.616Z,23.80
2018-11-23T14:22:48.655Z,23.40
2018-11-23T14:25:23.536Z,21.70
2018-11-23T14:27:59.816Z,21.80
2018-11-23T14:30:33.657Z,21.43
2018-11-23T14:33:05.556Z,22.40
2018-11-23T14:35:36.855Z,22.37
2018-11-23T14:38:06.486Z,20.63
2018-11-23T14:40:36.540Z,21.17
2018-11-23T14:43:06.816Z,22.00
2018-11-23T14:45:36.906Z,21.50
2018-11-23T14:48:08.957Z,20.67
2018-11-23T14:50:46.157Z,21.83
2018-11-23T14:53:17.808Z,21.50
2018-11-23T14:55:48.626Z,20.77
2018-11-23T14:58:20.889Z,22.67
2018-11-23T15:00:51.942Z,23.70
2018-11-23T15:03:21.917Z,24.23
2018-11-23T15:05:52.871Z,24.83
2018-11-23T15:08:22.812Z,23.57
2018-11-23T15:10:52.979Z,23.23
2018-11-23T15:13:23.945Z,22.77
2018-11-23T15:15:54.074Z,23.30
2018-11-23T15:18:25.003Z,24.50
2018-11-23T15:20:55.155Z,23.00
2018-11-23T15:23:24.866Z,24.30
2018-11-23T15:25:56.075Z,23.50
2018-11-23T15:28:26.075Z,22.13
2018-11-23T15:30:57.882Z,25.40
2018-11-23T15:33:29.925Z,24.20
2018-11-23T15:36:00.981Z,24.10
2018-11-23T15:38:31.180Z,23.70
2018-11-23T15:41:01.738Z,23.83
2018-11-23T15:43:32.070Z,23.30
2018-11-23T15:46:02.319Z,23.63
2018-11-23T15:48:32.806Z,25.10
2018-11-23T15:51:07.491Z,23.93
2018-11-23T15:53:45.083Z,24.67
2018-11-23T15:56:15.314Z,23.67
2018-11-23T15:58:48.936Z,25.27
2018-11-23T16:01:19.476Z,24.50
2018-11-23T16:03:49.908Z,25.47
2018-11-23T16:06:20.291Z,24.30
2018-11-23T16:08:50.148Z,25.60
2018-11-23T16:11:20.805Z,27.07
2018-11-23T16:13:51.103Z,25.63
2018-11-23T16:16:21.607Z,27.17
2018-11-23T16:18:51.931Z,26.70
2018-11-23T16:21:22.228Z,26.90
2018-11-23T16:23:52.183Z,26.23
2018-11-23T16:26:23.130Z,26.53
2018-11-23T16:28:53.319Z,26.93
2018-11-23T16:31:23.846Z,26.23
2018-11-23T16:33:54.136Z,25.20
2018-11-23T16:36:24.333Z,25.20
2018-11-23T16:38:54.362Z,28.00
2018-11-23T16:41:25.150Z,25.70
2018-11-23T16:43:55.543Z,25.10
2018-11-23T16:46:25.190Z,25.80
2018-11-23T16:48:56.302Z,28.10
2018-11-23T16:51:26.285Z,25.10
2018-11-23T16:56:33.329Z,25.93
2018-11-23T16:59:04.199Z,26.80
2018-11-23T17:01:34.338Z,26.20
2018-11-23T17:04:06.241Z,27.10
2018-11-23T17:06:37.559Z,28.13
2018-11-23T17:09:08.921Z,28.17
2018-11-23T17:11:41.599Z,27.87
2018-11-23T17:14:11.362Z,28.53
2018-11-23T17:16:42.427Z,28.97
2018-11-23T17:19:14.487Z,27.63
2018-11-23T17:21:45.751Z,28.17
2018-11-23T17:24:16.744Z,27.33
2018-11-23T17:26:46.655Z,28.50
2018-11-23T17:29:23.167Z,26.10
2018-11-23T17:31:53.757Z,27.77
2018-11-23T17:34:24.491Z,30.07
2018-11-23T17:36:54.648Z,27.87
2018-11-23T17:39:24.687Z,28.97
2018-11-23T17:41:55.600Z,27.90
2018-11-23T17:44:25.802Z,27.87
2018-11-23T17:46:56.552Z,26.80
2018-11-23T17:49:26.753Z,27.87
2018-11-23T17:51:57.608Z,29.30
2018-11-23T17:54:31.445Z,27.43
2018-11-23T17:57:03.510Z,28.67
2018-11-23T17:59:43.436Z,30.35
2018-11-23T18:02:16.067Z,28.70
2018-11-23T18:04:48.188Z,27.27
2018-11-23T18:07:21.337Z,26.13
2018-11-23T18:09:53.753Z,29.00
2018-11-23T18:12:24.727Z,28.50
2018-11-23T18:14:54.779Z,27.47
2018-11-23T18:17:25.158Z,27.60
2018-11-23T18:19:55.589Z,29.93
2018-11-23T18:22:25.783Z,28.10
2018-11-23T18:24:56.174Z,28.77
2018-11-23T18:27:26.569Z,27.67
2018-11-23T18:29:56.659Z,29.07
2018-11-23T18:32:26.962Z,29.50
2018-11-23T18:34:57.687Z,28.63
2018-11-23T18:37:27.983Z,32.13
2018-11-23T18:39:58.278Z,31.37
2018-11-23T18:42:28.619Z,30.17
2018-11-23T18:44:58.926Z,29.93
2018-11-23T18:47:30.039Z,30.00
2018-11-23T18:50:00.061Z,29.37
2018-11-23T18:52:30.266Z,30.77
2018-11-23T18:55:00.359Z,31.80
2018-11-23T18:57:30.686Z,29.93
2018-11-23T19:00:00.926Z,31.73
2018-11-23T19:02:31.334Z,31.20
2018-11-23T19:05:01.715Z,32.90
2018-11-23T19:07:32.238Z,31.20
2018-11-23T19:10:02.024Z,31.93
2018-11-23T19:12:32.989Z,31.67
2018-11-23T19:15:03.515Z,32.53
2018-11-23T19:17:33.182Z,31.30
2018-11-23T19:20:04.293Z,30.90
2018-11-23T19:22:34.219Z,31.70
2018-11-23T19:25:05.024Z,28.57
2018-11-23T19:27:35.451Z,31.30
2018-11-23T19:30:06.008Z,29.17
2018-11-23T19:32:35.960Z,31.53
2018-11-23T19:35:07.010Z,28.83
2018-11-23T19:37:36.762Z,30.13
2018-11-23T19:40:09.126Z,29.03
2018-11-23T19:42:40.296Z,28.73
2018-11-23T19:45:15.377Z,29.13
2018-11-23T19:47:47.106Z,27.70
2018-11-23T19:50:22.784Z,28.97
2018-11-23T19:52:54.029Z,27.30
2018-11-23T19:55:24.194Z,27.63
2018-11-23T19:57:54.812Z,29.43
2018-11-23T20:00:26.316Z,28.53
2018-11-23T20:02:56.030Z,27.00
2018-11-23T20:05:26.137Z,25.53
2018-11-23T20:07:57.292Z,27.23
2018-11-23T20:10:27.170Z,27.40
2018-11-23T20:12:57.923Z,27.87
2018-11-23T20:15:28.026Z,27.20
2018-11-23T20:17:58.397Z,26.30
2018-11-23T20:20:28.825Z,30.60
2018-11-23T20:22:59.236Z,25.37
2018-11-23T20:25:34.725Z,24.77
2018-11-23T20:28:05.285Z,25.10
2018-11-23T20:30:42.387Z,25.27
2018-11-23T20:33:08.820Z,25.37
2018-11-23T20:35:39.384Z,24.30
2018-11-23T20:38:09.287Z,22.87
2018-11-23T20:40:40.374Z,21.83
2018-11-23T20:43:12.256Z,22.80
2018-11-23T20:45:43.476Z,23.00
2018-11-23T20:48:15.517Z,22.80
2018-11-23T20:50:47.439Z,22.97
2018-11-23T20:53:17.928Z,23.43
2018-11-23T20:55:48.290Z,22.50
2018-11-23T20:58:18.363Z,22.50
2018-11-23T21:00:54.367Z,23.00
2018-11-23T21:03:24.684Z,23.00
2018-11-23T21:05:55.591Z,22.00
2018-11-23T21:08:25.457Z,23.10
2018-11-23T21:10:56.652Z,22.90
2018-11-23T21:13:26.530Z,20.60
2018-11-23T21:15:56.579Z,20.70
2018-11-23T21:18:30.637Z,22.53
2018-11-23T21:21:00.686Z,22.30
2018-11-23T21:23:30.758Z,23.40
2018-11-23T21:26:00.527Z,22.53
2018-11-23T21:28:32.466Z,23.10
2018-11-23T21:31:04.785Z,22.57
2018-11-23T21:33:35.292Z,23.43
2018-11-23T21:36:05.555Z,25.00
2018-11-23T21:38:35.625Z,25.47
2018-11-23T21:41:05.546Z,24.40
2018-11-23T21:43:36.572Z,26.17
2018-11-23T21:46:06.738Z,25.53
2018-11-23T21:48:36.699Z,24.80
2018-11-23T21:51:07.895Z,24.07
2018-11-23T21:53:38.630Z,24.83
2018-11-23T21:56:09.508Z,24.63
2018-11-23T21:58:38.746Z,24.30
2018-11-23T22:01:08.836Z,24.00
2018-11-23T22:03:38.568Z,25.30
2018-11-23T22:06:08.958Z,24.57
2018-11-23T22:08:39.912Z,23.90
2018-11-23T22:11:09.543Z,23.97
2018-11-23T22:13:43.743Z,23.60
2018-11-23T22:16:14.381Z,22.53
2018-11-23T22:18:44.712Z,22.03
2018-11-23T22:21:14.711Z,23.40
2018-11-23T22:23:45.627Z,22.00
2018-11-23T22:26:16.167Z,22.03
2018-11-23T22:28:45.904Z,20.70
2018-11-23T22:31:16.863Z,20.90
2018-11-23T22:33:47.207Z,22.37
2018-11-23T22:36:26.810Z,21.97
2018-11-23T22:38:57.793Z,21.70
2018-11-23T22:41:30.835Z,21.60
2018-11-23T22:44:00.927Z,21.43
2018-11-23T22:46:31.959Z,20.30
2018-11-23T22:49:04.032Z,20.47
2018-11-23T22:51:34.918Z,21.40
2018-11-23T22:54:06.301Z,21.00
2018-11-23T22:56:36.006Z,21.70
2018-11-23T22:59:06.478Z,21.23
2018-11-23T23:01:36.607Z,21.63
2018-11-23T23:04:07.061Z,20.33
2018-11-23T23:06:37.566Z,21.33
2018-11-23T23:09:09.932Z,20.60
2018-11-23T23:11:43.030Z,21.57
2018-11-23T23:14:15.071Z,20.07
2018-11-23T23:16:44.909Z,20.87
2018-11-23T23:19:15.918Z,21.10
2018-11-23T23:21:49.380Z,21.17
2018-11-23T23:24:19.122Z,20.17
2018-11-23T23:26:49.044Z,20.70
2018-11-23T23:29:20.004Z,21.40
2018-11-23T23:31:50.348Z,20.60
2018-11-23T23:34:19.968Z,20.50
2018-11-23T23:36:50.216Z,20.03
2018-11-23T23:39:21.181Z,20.70
2018-11-23T23:41:51.315Z,21.67
2018-11-23T23:44:21.119Z,20.47
2018-11-23T23:46:53.274Z,21.73
2018-11-23T23:49:25.104Z,20.30
2018-11-23T23:51:56.215Z,23.40
2018-11-23T23:54:26.216Z,21.80
2018-11-23T23:56:56.215Z,21.77
2018-11-23T23:59:26.177Z,21.77
